<?xml version="1.0" encoding="UTF-8" standalone="no" ?>
<gpx xmlns="http://www.topografix.com/GPX/1/1" xmlns:xsi="http://www.w3.org/2001/XMLSchema-instance" xsi:schemaLocation="http://www.topografix.com/GPX/1/1 http://www.topografix.com/GPX/1/1/gpx.xsd" version="1.1" creator="VisuGPX - https://www.visugpx.com">
  <metadata>
    <name>Etape 4-4_Col de la Trappe</name>
  </metadata>
  <trk>
    <name><![CDATA[Etape 4_Bagnères de Luchon _Ercé_Variante 127 kms_3075 D+ ]]></name>
    <extensions>
      <line xmlns="http://www.topografix.com/GPX/gpx_style/0/2">
        <color>0000FF</color>
        <width>4</width>
      </line>
    </extensions>
    <trkseg>
      <trkpt lat="42.85699" lon="1.197">
        <ele>536</ele>
        <time>2021-08-20T20:25:11Z</time>
      </trkpt>
      <trkpt lat="42.85594" lon="1.19677">
        <ele>534</ele>
        <time>2021-08-20T20:25:30Z</time>
      </trkpt>
      <trkpt lat="42.85485" lon="1.19662">
        <ele>542</ele>
        <time>2021-08-20T20:25:49Z</time>
      </trkpt>
      <trkpt lat="42.85463" lon="1.19653">
        <ele>547</ele>
        <time>2021-08-20T20:25:53Z</time>
      </trkpt>
      <trkpt lat="42.85446" lon="1.19639">
        <ele>549</ele>
        <time>2021-08-20T20:25:57Z</time>
      </trkpt>
      <trkpt lat="42.85428" lon="1.19619">
        <ele>548</ele>
        <time>2021-08-20T20:26:01Z</time>
      </trkpt>
      <trkpt lat="42.85408" lon="1.19588">
        <ele>546</ele>
        <time>2021-08-20T20:26:06Z</time>
      </trkpt>
      <trkpt lat="42.85389" lon="1.19556">
        <ele>552</ele>
        <time>2021-08-20T20:26:12Z</time>
      </trkpt>
      <trkpt lat="42.85357" lon="1.19472">
        <ele>551</ele>
        <time>2021-08-20T20:26:24Z</time>
      </trkpt>
      <trkpt lat="42.85344" lon="1.19431">
        <ele>546</ele>
        <time>2021-08-20T20:26:30Z</time>
      </trkpt>
      <trkpt lat="42.85331" lon="1.19397">
        <ele>543</ele>
        <time>2021-08-20T20:26:35Z</time>
      </trkpt>
      <trkpt lat="42.85315" lon="1.19366">
        <ele>545</ele>
        <time>2021-08-20T20:26:40Z</time>
      </trkpt>
      <trkpt lat="42.85298" lon="1.19344">
        <ele>543</ele>
        <time>2021-08-20T20:26:44Z</time>
      </trkpt>
      <trkpt lat="42.85278" lon="1.19327">
        <ele>540</ele>
        <time>2021-08-20T20:26:48Z</time>
      </trkpt>
      <trkpt lat="42.85263" lon="1.19317">
        <ele>539</ele>
        <time>2021-08-20T20:26:51Z</time>
      </trkpt>
      <trkpt lat="42.85244" lon="1.19309">
        <ele>538</ele>
        <time>2021-08-20T20:26:55Z</time>
      </trkpt>
      <trkpt lat="42.85164" lon="1.19291">
        <ele>540</ele>
        <time>2021-08-20T20:27:09Z</time>
      </trkpt>
      <trkpt lat="42.85095" lon="1.19283">
        <ele>539</ele>
        <time>2021-08-20T20:27:21Z</time>
      </trkpt>
      <trkpt lat="42.85023" lon="1.19282">
        <ele>544</ele>
        <time>2021-08-20T20:27:34Z</time>
      </trkpt>
      <trkpt lat="42.8499" lon="1.19274">
        <ele>547</ele>
        <time>2021-08-20T20:27:40Z</time>
      </trkpt>
      <trkpt lat="42.84974" lon="1.19265">
        <ele>549</ele>
        <time>2021-08-20T20:27:43Z</time>
      </trkpt>
      <trkpt lat="42.8496" lon="1.19253">
        <ele>549</ele>
        <time>2021-08-20T20:27:46Z</time>
      </trkpt>
      <trkpt lat="42.8495" lon="1.19237">
        <ele>550</ele>
        <time>2021-08-20T20:27:49Z</time>
      </trkpt>
      <trkpt lat="42.84913" lon="1.19159">
        <ele>542</ele>
        <time>2021-08-20T20:28:01Z</time>
      </trkpt>
      <trkpt lat="42.84906" lon="1.19152">
        <ele>544</ele>
        <time>2021-08-20T20:28:03Z</time>
      </trkpt>
      <trkpt lat="42.849" lon="1.19148">
        <ele>545</ele>
        <time>2021-08-20T20:28:04Z</time>
      </trkpt>
      <trkpt lat="42.84888" lon="1.19148">
        <ele>545</ele>
        <time>2021-08-20T20:28:06Z</time>
      </trkpt>
      <trkpt lat="42.84872" lon="1.19157">
        <ele>543</ele>
        <time>2021-08-20T20:28:09Z</time>
      </trkpt>
      <trkpt lat="42.84835" lon="1.19189">
        <ele>544</ele>
        <time>2021-08-20T20:28:17Z</time>
      </trkpt>
      <trkpt lat="42.84759" lon="1.19254">
        <ele>548</ele>
        <time>2021-08-20T20:28:33Z</time>
      </trkpt>
      <trkpt lat="42.84751" lon="1.19259">
        <ele>550</ele>
        <time>2021-08-20T20:28:34Z</time>
      </trkpt>
      <trkpt lat="42.84742" lon="1.19266">
        <ele>554</ele>
        <time>2021-08-20T20:28:36Z</time>
      </trkpt>
      <trkpt lat="42.84727" lon="1.1927">
        <ele>557</ele>
        <time>2021-08-20T20:28:39Z</time>
      </trkpt>
      <trkpt lat="42.84712" lon="1.19271">
        <ele>558</ele>
        <time>2021-08-20T20:28:42Z</time>
      </trkpt>
      <trkpt lat="42.84689" lon="1.19268">
        <ele>557</ele>
        <time>2021-08-20T20:28:46Z</time>
      </trkpt>
      <trkpt lat="42.84678" lon="1.19264">
        <ele>555</ele>
        <time>2021-08-20T20:28:48Z</time>
      </trkpt>
      <trkpt lat="42.8462" lon="1.19227">
        <ele>550</ele>
        <time>2021-08-20T20:28:59Z</time>
      </trkpt>
      <trkpt lat="42.84601" lon="1.19217">
        <ele>549</ele>
        <time>2021-08-20T20:29:03Z</time>
      </trkpt>
      <trkpt lat="42.84567" lon="1.19208">
        <ele>549</ele>
        <time>2021-08-20T20:29:09Z</time>
      </trkpt>
      <trkpt lat="42.84533" lon="1.19202">
        <ele>548</ele>
        <time>2021-08-20T20:29:15Z</time>
      </trkpt>
      <trkpt lat="42.8451" lon="1.19201">
        <ele>548</ele>
        <time>2021-08-20T20:29:19Z</time>
      </trkpt>
      <trkpt lat="42.84456" lon="1.19205">
        <ele>549</ele>
        <time>2021-08-20T20:29:29Z</time>
      </trkpt>
      <trkpt lat="42.84437" lon="1.19201">
        <ele>548</ele>
        <time>2021-08-20T20:29:32Z</time>
      </trkpt>
      <trkpt lat="42.84338" lon="1.19148">
        <ele>549</ele>
        <time>2021-08-20T20:29:51Z</time>
      </trkpt>
      <trkpt lat="42.84294" lon="1.1911">
        <ele>548</ele>
        <time>2021-08-20T20:30:00Z</time>
      </trkpt>
      <trkpt lat="42.8428" lon="1.19105">
        <ele>547</ele>
        <time>2021-08-20T20:30:03Z</time>
      </trkpt>
      <trkpt lat="42.84269" lon="1.19105">
        <ele>548</ele>
        <time>2021-08-20T20:30:05Z</time>
      </trkpt>
      <trkpt lat="42.84265" lon="1.19107">
        <ele>548</ele>
        <time>2021-08-20T20:30:06Z</time>
      </trkpt>
      <trkpt lat="42.84258" lon="1.1911">
        <ele>548</ele>
        <time>2021-08-20T20:30:07Z</time>
      </trkpt>
      <trkpt lat="42.84245" lon="1.19117">
        <ele>551</ele>
        <time>2021-08-20T20:30:09Z</time>
      </trkpt>
      <trkpt lat="42.84241" lon="1.19121">
        <ele>552</ele>
        <time>2021-08-20T20:30:10Z</time>
      </trkpt>
      <trkpt lat="42.84229" lon="1.19135">
        <ele>555</ele>
        <time>2021-08-20T20:30:13Z</time>
      </trkpt>
      <trkpt lat="42.84225" lon="1.19141">
        <ele>555</ele>
        <time>2021-08-20T20:30:14Z</time>
      </trkpt>
      <trkpt lat="42.84223" lon="1.19146">
        <ele>556</ele>
        <time>2021-08-20T20:30:15Z</time>
      </trkpt>
      <trkpt lat="42.84208" lon="1.1918">
        <ele>557</ele>
        <time>2021-08-20T20:30:20Z</time>
      </trkpt>
      <trkpt lat="42.84173" lon="1.19278">
        <ele>562</ele>
        <time>2021-08-20T20:30:34Z</time>
      </trkpt>
      <trkpt lat="42.84162" lon="1.19306">
        <ele>565</ele>
        <time>2021-08-20T20:30:38Z</time>
      </trkpt>
      <trkpt lat="42.84146" lon="1.19334">
        <ele>566</ele>
        <time>2021-08-20T20:30:43Z</time>
      </trkpt>
      <trkpt lat="42.83971" lon="1.19557">
        <ele>565</ele>
        <time>2021-08-20T20:31:26Z</time>
      </trkpt>
      <trkpt lat="42.83944" lon="1.19588">
        <ele>563</ele>
        <time>2021-08-20T20:31:32Z</time>
      </trkpt>
      <trkpt lat="42.83922" lon="1.19618">
        <ele>561</ele>
        <time>2021-08-20T20:31:37Z</time>
      </trkpt>
      <trkpt lat="42.83914" lon="1.19642">
        <ele>560</ele>
        <time>2021-08-20T20:31:41Z</time>
      </trkpt>
      <trkpt lat="42.83892" lon="1.19739">
        <ele>564</ele>
        <time>2021-08-20T20:31:54Z</time>
      </trkpt>
      <trkpt lat="42.83878" lon="1.19794">
        <ele>566</ele>
        <time>2021-08-20T20:32:02Z</time>
      </trkpt>
      <trkpt lat="42.8387" lon="1.19814">
        <ele>565</ele>
        <time>2021-08-20T20:32:05Z</time>
      </trkpt>
      <trkpt lat="42.83856" lon="1.19839">
        <ele>565</ele>
        <time>2021-08-20T20:32:09Z</time>
      </trkpt>
      <trkpt lat="42.83842" lon="1.19844">
        <ele>565</ele>
        <time>2021-08-20T20:32:11Z</time>
      </trkpt>
      <trkpt lat="42.83807" lon="1.19831">
        <ele>563</ele>
        <time>2021-08-20T20:32:18Z</time>
      </trkpt>
      <trkpt lat="42.83771" lon="1.19809">
        <ele>570</ele>
        <time>2021-08-20T20:32:25Z</time>
      </trkpt>
      <trkpt lat="42.8376" lon="1.19806">
        <ele>572</ele>
        <time>2021-08-20T20:32:27Z</time>
      </trkpt>
      <trkpt lat="42.83746" lon="1.19806">
        <ele>573</ele>
        <time>2021-08-20T20:32:29Z</time>
      </trkpt>
      <trkpt lat="42.83631" lon="1.19831">
        <ele>584</ele>
        <time>2021-08-20T20:32:50Z</time>
      </trkpt>
      <trkpt lat="42.83606" lon="1.19832">
        <ele>592</ele>
        <time>2021-08-20T20:32:55Z</time>
      </trkpt>
      <trkpt lat="42.83598" lon="1.19829">
        <ele>594</ele>
        <time>2021-08-20T20:32:56Z</time>
      </trkpt>
      <trkpt lat="42.8359" lon="1.19821">
        <ele>595</ele>
        <time>2021-08-20T20:32:58Z</time>
      </trkpt>
      <trkpt lat="42.83583" lon="1.1981">
        <ele>594</ele>
        <time>2021-08-20T20:33:00Z</time>
      </trkpt>
      <trkpt lat="42.83577" lon="1.19795">
        <ele>593</ele>
        <time>2021-08-20T20:33:02Z</time>
      </trkpt>
      <trkpt lat="42.83574" lon="1.19772">
        <ele>588</ele>
        <time>2021-08-20T20:33:05Z</time>
      </trkpt>
      <trkpt lat="42.83573" lon="1.19741">
        <ele>582</ele>
        <time>2021-08-20T20:33:09Z</time>
      </trkpt>
      <trkpt lat="42.83579" lon="1.1966">
        <ele>575</ele>
        <time>2021-08-20T20:33:20Z</time>
      </trkpt>
      <trkpt lat="42.83579" lon="1.19642">
        <ele>574</ele>
        <time>2021-08-20T20:33:22Z</time>
      </trkpt>
      <trkpt lat="42.83574" lon="1.19626">
        <ele>574</ele>
        <time>2021-08-20T20:33:24Z</time>
      </trkpt>
      <trkpt lat="42.83568" lon="1.19613">
        <ele>573</ele>
        <time>2021-08-20T20:33:26Z</time>
      </trkpt>
      <trkpt lat="42.8356" lon="1.19607">
        <ele>572</ele>
        <time>2021-08-20T20:33:28Z</time>
      </trkpt>
      <trkpt lat="42.8355" lon="1.19607">
        <ele>572</ele>
        <time>2021-08-20T20:33:30Z</time>
      </trkpt>
      <trkpt lat="42.83499" lon="1.19616">
        <ele>570</ele>
        <time>2021-08-20T20:33:39Z</time>
      </trkpt>
      <trkpt lat="42.83485" lon="1.19624">
        <ele>573</ele>
        <time>2021-08-20T20:33:42Z</time>
      </trkpt>
      <trkpt lat="42.83474" lon="1.19633">
        <ele>575</ele>
        <time>2021-08-20T20:33:44Z</time>
      </trkpt>
      <trkpt lat="42.83466" lon="1.19647">
        <ele>574</ele>
        <time>2021-08-20T20:33:46Z</time>
      </trkpt>
      <trkpt lat="42.83446" lon="1.19706">
        <ele>576</ele>
        <time>2021-08-20T20:33:55Z</time>
      </trkpt>
      <trkpt lat="42.83432" lon="1.19738">
        <ele>575</ele>
        <time>2021-08-20T20:33:59Z</time>
      </trkpt>
      <trkpt lat="42.83417" lon="1.19766">
        <ele>578</ele>
        <time>2021-08-20T20:34:04Z</time>
      </trkpt>
      <trkpt lat="42.834" lon="1.19784">
        <ele>584</ele>
        <time>2021-08-20T20:34:08Z</time>
      </trkpt>
      <trkpt lat="42.83384" lon="1.19796">
        <ele>586</ele>
        <time>2021-08-20T20:34:11Z</time>
      </trkpt>
      <trkpt lat="42.83367" lon="1.19806">
        <ele>585</ele>
        <time>2021-08-20T20:34:14Z</time>
      </trkpt>
      <trkpt lat="42.83352" lon="1.19813">
        <ele>583</ele>
        <time>2021-08-20T20:34:17Z</time>
      </trkpt>
      <trkpt lat="42.83331" lon="1.19819">
        <ele>579</ele>
        <time>2021-08-20T20:34:21Z</time>
      </trkpt>
      <trkpt lat="42.83301" lon="1.19826">
        <ele>577</ele>
        <time>2021-08-20T20:34:26Z</time>
      </trkpt>
      <trkpt lat="42.83234" lon="1.19831">
        <ele>574</ele>
        <time>2021-08-20T20:34:38Z</time>
      </trkpt>
      <trkpt lat="42.83213" lon="1.19837">
        <ele>575</ele>
        <time>2021-08-20T20:34:42Z</time>
      </trkpt>
      <trkpt lat="42.83199" lon="1.19845">
        <ele>576</ele>
        <time>2021-08-20T20:34:45Z</time>
      </trkpt>
      <trkpt lat="42.83202" lon="1.19864">
        <ele>579</ele>
        <time>2021-08-20T20:34:47Z</time>
      </trkpt>
      <trkpt lat="42.8321" lon="1.19897">
        <ele>583</ele>
        <time>2021-08-20T20:34:52Z</time>
      </trkpt>
      <trkpt lat="42.83216" lon="1.19914">
        <ele>585</ele>
        <time>2021-08-20T20:34:54Z</time>
      </trkpt>
      <trkpt lat="42.83238" lon="1.19949">
        <ele>587</ele>
        <time>2021-08-20T20:35:00Z</time>
      </trkpt>
      <trkpt lat="42.83264" lon="1.19997">
        <ele>595</ele>
        <time>2021-08-20T20:35:08Z</time>
      </trkpt>
      <trkpt lat="42.83271" lon="1.20014">
        <ele>600</ele>
        <time>2021-08-20T20:35:11Z</time>
      </trkpt>
      <trkpt lat="42.83275" lon="1.20032">
        <ele>602</ele>
        <time>2021-08-20T20:35:13Z</time>
      </trkpt>
      <trkpt lat="42.83277" lon="1.2005">
        <ele>603</ele>
        <time>2021-08-20T20:35:16Z</time>
      </trkpt>
      <trkpt lat="42.83277" lon="1.20069">
        <ele>603</ele>
        <time>2021-08-20T20:35:18Z</time>
      </trkpt>
      <trkpt lat="42.83272" lon="1.20106">
        <ele>601</ele>
        <time>2021-08-20T20:35:23Z</time>
      </trkpt>
      <trkpt lat="42.83227" lon="1.20253">
        <ele>602</ele>
        <time>2021-08-20T20:35:44Z</time>
      </trkpt>
      <trkpt lat="42.8322" lon="1.20305">
        <ele>603</ele>
        <time>2021-08-20T20:35:51Z</time>
      </trkpt>
      <trkpt lat="42.83218" lon="1.20358">
        <ele>603</ele>
        <time>2021-08-20T20:35:58Z</time>
      </trkpt>
      <trkpt lat="42.83218" lon="1.20416">
        <ele>604</ele>
        <time>2021-08-20T20:36:05Z</time>
      </trkpt>
      <trkpt lat="42.83222" lon="1.20474">
        <ele>606</ele>
        <time>2021-08-20T20:36:13Z</time>
      </trkpt>
      <trkpt lat="42.8323" lon="1.20515">
        <ele>605</ele>
        <time>2021-08-20T20:36:18Z</time>
      </trkpt>
      <trkpt lat="42.83244" lon="1.20552">
        <ele>599</ele>
        <time>2021-08-20T20:36:24Z</time>
      </trkpt>
      <trkpt lat="42.83273" lon="1.20599">
        <ele>603</ele>
        <time>2021-08-20T20:36:32Z</time>
      </trkpt>
      <trkpt lat="42.83306" lon="1.2064">
        <ele>606</ele>
        <time>2021-08-20T20:36:40Z</time>
      </trkpt>
      <trkpt lat="42.83402" lon="1.20746">
        <ele>607</ele>
        <time>2021-08-20T20:37:02Z</time>
      </trkpt>
      <trkpt lat="42.83411" lon="1.20759">
        <ele>605</ele>
        <time>2021-08-20T20:37:04Z</time>
      </trkpt>
      <trkpt lat="42.83418" lon="1.20776">
        <ele>604</ele>
        <time>2021-08-20T20:37:07Z</time>
      </trkpt>
      <trkpt lat="42.83421" lon="1.20791">
        <ele>603</ele>
        <time>2021-08-20T20:37:09Z</time>
      </trkpt>
      <trkpt lat="42.83422" lon="1.20811">
        <ele>601</ele>
        <time>2021-08-20T20:37:11Z</time>
      </trkpt>
      <trkpt lat="42.83418" lon="1.20827">
        <ele>598</ele>
        <time>2021-08-20T20:37:13Z</time>
      </trkpt>
      <trkpt lat="42.83415" lon="1.20835">
        <ele>597</ele>
        <time>2021-08-20T20:37:15Z</time>
      </trkpt>
      <trkpt lat="42.83411" lon="1.20843">
        <ele>599</ele>
        <time>2021-08-20T20:37:16Z</time>
      </trkpt>
      <trkpt lat="42.834" lon="1.20859">
        <ele>601</ele>
        <time>2021-08-20T20:37:19Z</time>
      </trkpt>
      <trkpt lat="42.83319" lon="1.20943">
        <ele>604</ele>
        <time>2021-08-20T20:37:37Z</time>
      </trkpt>
      <trkpt lat="42.83305" lon="1.20967">
        <ele>608</ele>
        <time>2021-08-20T20:37:41Z</time>
      </trkpt>
      <trkpt lat="42.83297" lon="1.20988">
        <ele>609</ele>
        <time>2021-08-20T20:37:44Z</time>
      </trkpt>
      <trkpt lat="42.83281" lon="1.21044">
        <ele>606</ele>
        <time>2021-08-20T20:37:52Z</time>
      </trkpt>
      <trkpt lat="42.83271" lon="1.21108">
        <ele>599</ele>
        <time>2021-08-20T20:38:00Z</time>
      </trkpt>
      <trkpt lat="42.83269" lon="1.21244">
        <ele>598</ele>
        <time>2021-08-20T20:38:18Z</time>
      </trkpt>
      <trkpt lat="42.8327" lon="1.21291">
        <ele>602</ele>
        <time>2021-08-20T20:38:24Z</time>
      </trkpt>
      <trkpt lat="42.8327" lon="1.21325">
        <ele>605</ele>
        <time>2021-08-20T20:38:29Z</time>
      </trkpt>
      <trkpt lat="42.83267" lon="1.2134">
        <ele>606</ele>
        <time>2021-08-20T20:38:31Z</time>
      </trkpt>
      <trkpt lat="42.83264" lon="1.21346">
        <ele>605</ele>
        <time>2021-08-20T20:38:32Z</time>
      </trkpt>
      <trkpt lat="42.83244" lon="1.21367">
        <ele>603</ele>
        <time>2021-08-20T20:38:36Z</time>
      </trkpt>
      <trkpt lat="42.83236" lon="1.21377">
        <ele>605</ele>
        <time>2021-08-20T20:38:38Z</time>
      </trkpt>
      <trkpt lat="42.83229" lon="1.2139">
        <ele>608</ele>
        <time>2021-08-20T20:38:40Z</time>
      </trkpt>
      <trkpt lat="42.83189" lon="1.21474">
        <ele>618</ele>
        <time>2021-08-20T20:38:53Z</time>
      </trkpt>
      <trkpt lat="42.83182" lon="1.21502">
        <ele>621</ele>
        <time>2021-08-20T20:38:57Z</time>
      </trkpt>
      <trkpt lat="42.83176" lon="1.21529">
        <ele>624</ele>
        <time>2021-08-20T20:39:01Z</time>
      </trkpt>
      <trkpt lat="42.83174" lon="1.21557">
        <ele>628</ele>
        <time>2021-08-20T20:39:04Z</time>
      </trkpt>
      <trkpt lat="42.83175" lon="1.21582">
        <ele>630</ele>
        <time>2021-08-20T20:39:08Z</time>
      </trkpt>
      <trkpt lat="42.83177" lon="1.21605">
        <ele>631</ele>
        <time>2021-08-20T20:39:11Z</time>
      </trkpt>
      <trkpt lat="42.83185" lon="1.21638">
        <ele>630</ele>
        <time>2021-08-20T20:39:15Z</time>
      </trkpt>
      <trkpt lat="42.83204" lon="1.21688">
        <ele>625</ele>
        <time>2021-08-20T20:39:23Z</time>
      </trkpt>
      <trkpt lat="42.83208" lon="1.21704">
        <ele>623</ele>
        <time>2021-08-20T20:39:25Z</time>
      </trkpt>
      <trkpt lat="42.83208" lon="1.2172">
        <ele>623</ele>
        <time>2021-08-20T20:39:27Z</time>
      </trkpt>
      <trkpt lat="42.83207" lon="1.21735">
        <ele>623</ele>
        <time>2021-08-20T20:39:29Z</time>
      </trkpt>
      <trkpt lat="42.83202" lon="1.2175">
        <ele>623</ele>
        <time>2021-08-20T20:39:31Z</time>
      </trkpt>
      <trkpt lat="42.83195" lon="1.21762">
        <ele>624</ele>
        <time>2021-08-20T20:39:33Z</time>
      </trkpt>
      <trkpt lat="42.83172" lon="1.21793">
        <ele>623</ele>
        <time>2021-08-20T20:39:39Z</time>
      </trkpt>
      <trkpt lat="42.83162" lon="1.21814">
        <ele>623</ele>
        <time>2021-08-20T20:39:42Z</time>
      </trkpt>
      <trkpt lat="42.83157" lon="1.21831">
        <ele>623</ele>
        <time>2021-08-20T20:39:44Z</time>
      </trkpt>
      <trkpt lat="42.8315" lon="1.21877">
        <ele>619</ele>
        <time>2021-08-20T20:39:50Z</time>
      </trkpt>
      <trkpt lat="42.83144" lon="1.21898">
        <ele>617</ele>
        <time>2021-08-20T20:39:53Z</time>
      </trkpt>
      <trkpt lat="42.83132" lon="1.21915">
        <ele>616</ele>
        <time>2021-08-20T20:39:56Z</time>
      </trkpt>
      <trkpt lat="42.83126" lon="1.2192">
        <ele>617</ele>
        <time>2021-08-20T20:39:58Z</time>
      </trkpt>
      <trkpt lat="42.83113" lon="1.21925">
        <ele>620</ele>
        <time>2021-08-20T20:40:00Z</time>
      </trkpt>
      <trkpt lat="42.83099" lon="1.21925">
        <ele>622</ele>
        <time>2021-08-20T20:40:03Z</time>
      </trkpt>
      <trkpt lat="42.83074" lon="1.21917">
        <ele>631</ele>
        <time>2021-08-20T20:40:07Z</time>
      </trkpt>
      <trkpt lat="42.83062" lon="1.21916">
        <ele>638</ele>
        <time>2021-08-20T20:40:09Z</time>
      </trkpt>
      <trkpt lat="42.8305" lon="1.21918">
        <ele>644</ele>
        <time>2021-08-20T20:40:11Z</time>
      </trkpt>
      <trkpt lat="42.83037" lon="1.2193">
        <ele>648</ele>
        <time>2021-08-20T20:40:14Z</time>
      </trkpt>
      <trkpt lat="42.83025" lon="1.2195">
        <ele>648</ele>
        <time>2021-08-20T20:40:18Z</time>
      </trkpt>
      <trkpt lat="42.83018" lon="1.21971">
        <ele>643</ele>
        <time>2021-08-20T20:40:21Z</time>
      </trkpt>
      <trkpt lat="42.83016" lon="1.21991">
        <ele>637</ele>
        <time>2021-08-20T20:40:23Z</time>
      </trkpt>
      <trkpt lat="42.83005" lon="1.22198">
        <ele>624</ele>
        <time>2021-08-20T20:40:50Z</time>
      </trkpt>
      <trkpt lat="42.83002" lon="1.22217">
        <ele>624</ele>
        <time>2021-08-20T20:40:53Z</time>
      </trkpt>
      <trkpt lat="42.82994" lon="1.2224">
        <ele>628</ele>
        <time>2021-08-20T20:40:56Z</time>
      </trkpt>
      <trkpt lat="42.82974" lon="1.22282">
        <ele>636</ele>
        <time>2021-08-20T20:41:03Z</time>
      </trkpt>
      <trkpt lat="42.82968" lon="1.22309">
        <ele>638</ele>
        <time>2021-08-20T20:41:06Z</time>
      </trkpt>
      <trkpt lat="42.82968" lon="1.22318">
        <ele>638</ele>
        <time>2021-08-20T20:41:08Z</time>
      </trkpt>
      <trkpt lat="42.8297" lon="1.22329">
        <ele>637</ele>
        <time>2021-08-20T20:41:09Z</time>
      </trkpt>
      <trkpt lat="42.82977" lon="1.22384">
        <ele>634</ele>
        <time>2021-08-20T20:41:16Z</time>
      </trkpt>
      <trkpt lat="42.82978" lon="1.22401">
        <ele>633</ele>
        <time>2021-08-20T20:41:19Z</time>
      </trkpt>
      <trkpt lat="42.82982" lon="1.22479">
        <ele>636</ele>
        <time>2021-08-20T20:41:29Z</time>
      </trkpt>
      <trkpt lat="42.82983" lon="1.22516">
        <ele>638</ele>
        <time>2021-08-20T20:41:34Z</time>
      </trkpt>
      <trkpt lat="42.82981" lon="1.22536">
        <ele>639</ele>
        <time>2021-08-20T20:41:36Z</time>
      </trkpt>
      <trkpt lat="42.82976" lon="1.22558">
        <ele>640</ele>
        <time>2021-08-20T20:41:39Z</time>
      </trkpt>
      <trkpt lat="42.82968" lon="1.22582">
        <ele>640</ele>
        <time>2021-08-20T20:41:43Z</time>
      </trkpt>
      <trkpt lat="42.82958" lon="1.22601">
        <ele>640</ele>
        <time>2021-08-20T20:41:46Z</time>
      </trkpt>
      <trkpt lat="42.82933" lon="1.22632">
        <ele>637</ele>
        <time>2021-08-20T20:41:52Z</time>
      </trkpt>
      <trkpt lat="42.82929" lon="1.22639">
        <ele>636</ele>
        <time>2021-08-20T20:41:53Z</time>
      </trkpt>
      <trkpt lat="42.82918" lon="1.22653">
        <ele>633</ele>
        <time>2021-08-20T20:41:56Z</time>
      </trkpt>
      <trkpt lat="42.82903" lon="1.22679">
        <ele>635</ele>
        <time>2021-08-20T20:42:00Z</time>
      </trkpt>
      <trkpt lat="42.82866" lon="1.22749">
        <ele>638</ele>
        <time>2021-08-20T20:42:11Z</time>
      </trkpt>
      <trkpt lat="42.82843" lon="1.22785">
        <ele>638</ele>
        <time>2021-08-20T20:42:17Z</time>
      </trkpt>
      <trkpt lat="42.8283" lon="1.22796">
        <ele>637</ele>
        <time>2021-08-20T20:42:20Z</time>
      </trkpt>
      <trkpt lat="42.82827" lon="1.22798">
        <ele>637</ele>
        <time>2021-08-20T20:42:21Z</time>
      </trkpt>
      <trkpt lat="42.82794" lon="1.2282">
        <ele>640</ele>
        <time>2021-08-20T20:42:27Z</time>
      </trkpt>
      <trkpt lat="42.82782" lon="1.22835">
        <ele>640</ele>
        <time>2021-08-20T20:42:30Z</time>
      </trkpt>
      <trkpt lat="42.82776" lon="1.22844">
        <ele>640</ele>
        <time>2021-08-20T20:42:32Z</time>
      </trkpt>
      <trkpt lat="42.82773" lon="1.22855">
        <ele>640</ele>
        <time>2021-08-20T20:42:33Z</time>
      </trkpt>
      <trkpt lat="42.82751" lon="1.22969">
        <ele>639</ele>
        <time>2021-08-20T20:42:49Z</time>
      </trkpt>
      <trkpt lat="42.82745" lon="1.22992">
        <ele>640</ele>
        <time>2021-08-20T20:42:52Z</time>
      </trkpt>
      <trkpt lat="42.82737" lon="1.23009">
        <ele>643</ele>
        <time>2021-08-20T20:42:55Z</time>
      </trkpt>
      <trkpt lat="42.82726" lon="1.23027">
        <ele>646</ele>
        <time>2021-08-20T20:42:58Z</time>
      </trkpt>
      <trkpt lat="42.82715" lon="1.23041">
        <ele>648</ele>
        <time>2021-08-20T20:43:00Z</time>
      </trkpt>
      <trkpt lat="42.82702" lon="1.23052">
        <ele>648</ele>
        <time>2021-08-20T20:43:03Z</time>
      </trkpt>
      <trkpt lat="42.82672" lon="1.23072">
        <ele>647</ele>
        <time>2021-08-20T20:43:09Z</time>
      </trkpt>
      <trkpt lat="42.82661" lon="1.23083">
        <ele>647</ele>
        <time>2021-08-20T20:43:11Z</time>
      </trkpt>
      <trkpt lat="42.82649" lon="1.231">
        <ele>649</ele>
        <time>2021-08-20T20:43:14Z</time>
      </trkpt>
      <trkpt lat="42.82629" lon="1.2314">
        <ele>651</ele>
        <time>2021-08-20T20:43:21Z</time>
      </trkpt>
      <trkpt lat="42.82617" lon="1.23165">
        <ele>651</ele>
        <time>2021-08-20T20:43:25Z</time>
      </trkpt>
      <trkpt lat="42.82609" lon="1.23178">
        <ele>651</ele>
        <time>2021-08-20T20:43:27Z</time>
      </trkpt>
      <trkpt lat="42.826" lon="1.23187">
        <ele>651</ele>
        <time>2021-08-20T20:43:29Z</time>
      </trkpt>
      <trkpt lat="42.82578" lon="1.23202">
        <ele>649</ele>
        <time>2021-08-20T20:43:33Z</time>
      </trkpt>
      <trkpt lat="42.82565" lon="1.23205">
        <ele>649</ele>
        <time>2021-08-20T20:43:36Z</time>
      </trkpt>
      <trkpt lat="42.82525" lon="1.23201">
        <ele>651</ele>
        <time>2021-08-20T20:43:43Z</time>
      </trkpt>
      <trkpt lat="42.82515" lon="1.23203">
        <ele>651</ele>
        <time>2021-08-20T20:43:44Z</time>
      </trkpt>
      <trkpt lat="42.82505" lon="1.23209">
        <ele>651</ele>
        <time>2021-08-20T20:43:46Z</time>
      </trkpt>
      <trkpt lat="42.82498" lon="1.23215">
        <ele>650</ele>
        <time>2021-08-20T20:43:48Z</time>
      </trkpt>
      <trkpt lat="42.82494" lon="1.23222">
        <ele>650</ele>
        <time>2021-08-20T20:43:49Z</time>
      </trkpt>
      <trkpt lat="42.8246" lon="1.23292">
        <ele>648</ele>
        <time>2021-08-20T20:44:00Z</time>
      </trkpt>
      <trkpt lat="42.82446" lon="1.23321">
        <ele>648</ele>
        <time>2021-08-20T20:44:05Z</time>
      </trkpt>
      <trkpt lat="42.82435" lon="1.23344">
        <ele>649</ele>
        <time>2021-08-20T20:44:08Z</time>
      </trkpt>
      <trkpt lat="42.82433" lon="1.23348">
        <ele>649</ele>
        <time>2021-08-20T20:44:09Z</time>
      </trkpt>
      <trkpt lat="42.8241" lon="1.2339">
        <ele>649</ele>
        <time>2021-08-20T20:44:16Z</time>
      </trkpt>
      <trkpt lat="42.82386" lon="1.23429">
        <ele>652</ele>
        <time>2021-08-20T20:44:22Z</time>
      </trkpt>
      <trkpt lat="42.82383" lon="1.23434">
        <ele>653</ele>
        <time>2021-08-20T20:44:23Z</time>
      </trkpt>
      <trkpt lat="42.82365" lon="1.23459">
        <ele>654</ele>
        <time>2021-08-20T20:44:28Z</time>
      </trkpt>
      <trkpt lat="42.82349" lon="1.23478">
        <ele>653</ele>
        <time>2021-08-20T20:44:31Z</time>
      </trkpt>
      <trkpt lat="42.82331" lon="1.23494">
        <ele>651</ele>
        <time>2021-08-20T20:44:35Z</time>
      </trkpt>
      <trkpt lat="42.82281" lon="1.23538">
        <ele>658</ele>
        <time>2021-08-20T20:44:46Z</time>
      </trkpt>
      <trkpt lat="42.82263" lon="1.23553">
        <ele>658</ele>
        <time>2021-08-20T20:44:50Z</time>
      </trkpt>
      <trkpt lat="42.82258" lon="1.23558">
        <ele>657</ele>
        <time>2021-08-20T20:44:51Z</time>
      </trkpt>
      <trkpt lat="42.8223" lon="1.23592">
        <ele>659</ele>
        <time>2021-08-20T20:44:57Z</time>
      </trkpt>
      <trkpt lat="42.82212" lon="1.23625">
        <ele>661</ele>
        <time>2021-08-20T20:45:03Z</time>
      </trkpt>
      <trkpt lat="42.82211" lon="1.23627">
        <ele>661</ele>
        <time>2021-08-20T20:45:03Z</time>
      </trkpt>
      <trkpt lat="42.82136" lon="1.23798">
        <ele>656</ele>
        <time>2021-08-20T20:45:29Z</time>
      </trkpt>
      <trkpt lat="42.82084" lon="1.23924">
        <ele>654</ele>
        <time>2021-08-20T20:45:48Z</time>
      </trkpt>
      <trkpt lat="42.82053" lon="1.23984">
        <ele>657</ele>
        <time>2021-08-20T20:45:58Z</time>
      </trkpt>
      <trkpt lat="42.82018" lon="1.24038">
        <ele>658</ele>
        <time>2021-08-20T20:46:07Z</time>
      </trkpt>
      <trkpt lat="42.81995" lon="1.24068">
        <ele>658</ele>
        <time>2021-08-20T20:46:13Z</time>
      </trkpt>
      <trkpt lat="42.81975" lon="1.24091">
        <ele>661</ele>
        <time>2021-08-20T20:46:17Z</time>
      </trkpt>
      <trkpt lat="42.81921" lon="1.24152">
        <ele>662</ele>
        <time>2021-08-20T20:46:30Z</time>
      </trkpt>
      <trkpt lat="42.81829" lon="1.24259">
        <ele>664</ele>
        <time>2021-08-20T20:46:51Z</time>
      </trkpt>
      <trkpt lat="42.81738" lon="1.24401">
        <ele>669</ele>
        <time>2021-08-20T20:47:16Z</time>
      </trkpt>
      <trkpt lat="42.81672" lon="1.24508">
        <ele>674</ele>
        <time>2021-08-20T20:47:34Z</time>
      </trkpt>
      <trkpt lat="42.81645" lon="1.24566">
        <ele>674</ele>
        <time>2021-08-20T20:47:43Z</time>
      </trkpt>
      <trkpt lat="42.81628" lon="1.24631">
        <ele>673</ele>
        <time>2021-08-20T20:47:52Z</time>
      </trkpt>
      <trkpt lat="42.81596" lon="1.24799">
        <ele>671</ele>
        <time>2021-08-20T20:48:15Z</time>
      </trkpt>
      <trkpt lat="42.81587" lon="1.24831">
        <ele>670</ele>
        <time>2021-08-20T20:48:19Z</time>
      </trkpt>
      <trkpt lat="42.81572" lon="1.24849">
        <ele>671</ele>
        <time>2021-08-20T20:48:23Z</time>
      </trkpt>
      <trkpt lat="42.81546" lon="1.24869">
        <ele>675</ele>
        <time>2021-08-20T20:48:28Z</time>
      </trkpt>
      <trkpt lat="42.81521" lon="1.249">
        <ele>677</ele>
        <time>2021-08-20T20:48:34Z</time>
      </trkpt>
      <trkpt lat="42.8151" lon="1.24917">
        <ele>678</ele>
        <time>2021-08-20T20:48:37Z</time>
      </trkpt>
      <trkpt lat="42.81501" lon="1.24941">
        <ele>678</ele>
        <time>2021-08-20T20:48:41Z</time>
      </trkpt>
      <trkpt lat="42.81497" lon="1.2496">
        <ele>678</ele>
        <time>2021-08-20T20:48:43Z</time>
      </trkpt>
      <trkpt lat="42.81497" lon="1.25037">
        <ele>675</ele>
        <time>2021-08-20T20:48:53Z</time>
      </trkpt>
      <trkpt lat="42.81494" lon="1.25075">
        <ele>675</ele>
        <time>2021-08-20T20:48:58Z</time>
      </trkpt>
      <trkpt lat="42.81489" lon="1.25105">
        <ele>674</ele>
        <time>2021-08-20T20:49:02Z</time>
      </trkpt>
      <trkpt lat="42.8148" lon="1.25135">
        <ele>674</ele>
        <time>2021-08-20T20:49:06Z</time>
      </trkpt>
      <trkpt lat="42.81437" lon="1.25189">
        <ele>677</ele>
        <time>2021-08-20T20:49:17Z</time>
      </trkpt>
      <trkpt lat="42.81356" lon="1.25282">
        <ele>677</ele>
        <time>2021-08-20T20:49:36Z</time>
      </trkpt>
      <trkpt lat="42.81346" lon="1.2529">
        <ele>677</ele>
        <time>2021-08-20T20:49:38Z</time>
      </trkpt>
      <trkpt lat="42.81286" lon="1.25315">
        <ele>680</ele>
        <time>2021-08-20T20:49:49Z</time>
      </trkpt>
      <trkpt lat="42.81274" lon="1.25322">
        <ele>680</ele>
        <time>2021-08-20T20:49:51Z</time>
      </trkpt>
      <trkpt lat="42.81259" lon="1.25333">
        <ele>679</ele>
        <time>2021-08-20T20:49:54Z</time>
      </trkpt>
      <trkpt lat="42.81209" lon="1.25381">
        <ele>690</ele>
        <time>2021-08-20T20:50:05Z</time>
      </trkpt>
      <trkpt lat="42.81183" lon="1.25422">
        <ele>690</ele>
        <time>2021-08-20T20:50:12Z</time>
      </trkpt>
      <trkpt lat="42.81144" lon="1.25483">
        <ele>687</ele>
        <time>2021-08-20T20:50:23Z</time>
      </trkpt>
      <trkpt lat="42.81136" lon="1.25494">
        <ele>686</ele>
        <time>2021-08-20T20:50:25Z</time>
      </trkpt>
      <trkpt lat="42.81105" lon="1.25555">
        <ele>683</ele>
        <time>2021-08-20T20:50:34Z</time>
      </trkpt>
      <trkpt lat="42.81082" lon="1.256">
        <ele>680</ele>
        <time>2021-08-20T20:50:42Z</time>
      </trkpt>
      <trkpt lat="42.81062" lon="1.25637">
        <ele>682</ele>
        <time>2021-08-20T20:50:48Z</time>
      </trkpt>
      <trkpt lat="42.81053" lon="1.25653">
        <ele>682</ele>
        <time>2021-08-20T20:50:50Z</time>
      </trkpt>
      <trkpt lat="42.81034" lon="1.25687">
        <ele>682</ele>
        <time>2021-08-20T20:50:56Z</time>
      </trkpt>
      <trkpt lat="42.81026" lon="1.257">
        <ele>682</ele>
        <time>2021-08-20T20:50:58Z</time>
      </trkpt>
      <trkpt lat="42.81018" lon="1.25717">
        <ele>683</ele>
        <time>2021-08-20T20:51:01Z</time>
      </trkpt>
      <trkpt lat="42.81009" lon="1.25742">
        <ele>683</ele>
        <time>2021-08-20T20:51:04Z</time>
      </trkpt>
      <trkpt lat="42.81003" lon="1.25751">
        <ele>683</ele>
        <time>2021-08-20T20:51:06Z</time>
      </trkpt>
      <trkpt lat="42.80998" lon="1.25759">
        <ele>683</ele>
        <time>2021-08-20T20:51:07Z</time>
      </trkpt>
      <trkpt lat="42.80992" lon="1.25764">
        <ele>683</ele>
        <time>2021-08-20T20:51:09Z</time>
      </trkpt>
      <trkpt lat="42.80988" lon="1.25765">
        <ele>683</ele>
        <time>2021-08-20T20:51:09Z</time>
      </trkpt>
      <trkpt lat="42.8098" lon="1.2577">
        <ele>684</ele>
        <time>2021-08-20T20:51:11Z</time>
      </trkpt>
      <trkpt lat="42.8091" lon="1.2583">
        <ele>687</ele>
        <time>2021-08-20T20:51:26Z</time>
      </trkpt>
      <trkpt lat="42.80905" lon="1.25835">
        <ele>687</ele>
        <time>2021-08-20T20:51:27Z</time>
      </trkpt>
      <trkpt lat="42.80891" lon="1.2585">
        <ele>687</ele>
        <time>2021-08-20T20:51:30Z</time>
      </trkpt>
      <trkpt lat="42.80887" lon="1.25854">
        <ele>687</ele>
        <time>2021-08-20T20:51:31Z</time>
      </trkpt>
      <trkpt lat="42.80874" lon="1.25868">
        <ele>687</ele>
        <time>2021-08-20T20:51:34Z</time>
      </trkpt>
      <trkpt lat="42.80863" lon="1.25882">
        <ele>687</ele>
        <time>2021-08-20T20:51:36Z</time>
      </trkpt>
      <trkpt lat="42.80855" lon="1.2589">
        <ele>687</ele>
        <time>2021-08-20T20:51:38Z</time>
      </trkpt>
      <trkpt lat="42.80827" lon="1.25917">
        <ele>689</ele>
        <time>2021-08-20T20:51:44Z</time>
      </trkpt>
      <trkpt lat="42.80817" lon="1.25931">
        <ele>691</ele>
        <time>2021-08-20T20:51:47Z</time>
      </trkpt>
      <trkpt lat="42.80805" lon="1.25953">
        <ele>694</ele>
        <time>2021-08-20T20:51:50Z</time>
      </trkpt>
      <trkpt lat="42.8078" lon="1.26011">
        <ele>697</ele>
        <time>2021-08-20T20:51:59Z</time>
      </trkpt>
      <trkpt lat="42.80703" lon="1.26156">
        <ele>711</ele>
        <time>2021-08-20T20:52:22Z</time>
      </trkpt>
      <trkpt lat="42.80688" lon="1.26193">
        <ele>709</ele>
        <time>2021-08-20T20:52:28Z</time>
      </trkpt>
      <trkpt lat="42.80677" lon="1.26215">
        <ele>707</ele>
        <time>2021-08-20T20:52:31Z</time>
      </trkpt>
      <trkpt lat="42.80629" lon="1.26275">
        <ele>712</ele>
        <time>2021-08-20T20:52:43Z</time>
      </trkpt>
      <trkpt lat="42.80589" lon="1.26344">
        <ele>708</ele>
        <time>2021-08-20T20:52:55Z</time>
      </trkpt>
      <trkpt lat="42.80561" lon="1.26407">
        <ele>707</ele>
        <time>2021-08-20T20:53:04Z</time>
      </trkpt>
      <trkpt lat="42.80537" lon="1.26483">
        <ele>701</ele>
        <time>2021-08-20T20:53:15Z</time>
      </trkpt>
      <trkpt lat="42.80531" lon="1.26497">
        <ele>699</ele>
        <time>2021-08-20T20:53:17Z</time>
      </trkpt>
      <trkpt lat="42.80468" lon="1.26604">
        <ele>699</ele>
        <time>2021-08-20T20:53:35Z</time>
      </trkpt>
      <trkpt lat="42.80409" lon="1.26697">
        <ele>697</ele>
        <time>2021-08-20T20:53:51Z</time>
      </trkpt>
      <trkpt lat="42.80402" lon="1.26712">
        <ele>697</ele>
        <time>2021-08-20T20:53:53Z</time>
      </trkpt>
      <trkpt lat="42.80398" lon="1.26729">
        <ele>695</ele>
        <time>2021-08-20T20:53:56Z</time>
      </trkpt>
      <trkpt lat="42.80394" lon="1.26752">
        <ele>692</ele>
        <time>2021-08-20T20:53:59Z</time>
      </trkpt>
      <trkpt lat="42.8039" lon="1.26827">
        <ele>688</ele>
        <time>2021-08-20T20:54:09Z</time>
      </trkpt>
      <trkpt lat="42.80387" lon="1.26868">
        <ele>689</ele>
        <time>2021-08-20T20:54:14Z</time>
      </trkpt>
      <trkpt lat="42.80386" lon="1.26884">
        <ele>689</ele>
        <time>2021-08-20T20:54:16Z</time>
      </trkpt>
      <trkpt lat="42.80381" lon="1.269">
        <ele>690</ele>
        <time>2021-08-20T20:54:18Z</time>
      </trkpt>
      <trkpt lat="42.80337" lon="1.27009">
        <ele>693</ele>
        <time>2021-08-20T20:54:35Z</time>
      </trkpt>
      <trkpt lat="42.8033" lon="1.27022">
        <ele>693</ele>
        <time>2021-08-20T20:54:37Z</time>
      </trkpt>
      <trkpt lat="42.80321" lon="1.27032">
        <ele>693</ele>
        <time>2021-08-20T20:54:39Z</time>
      </trkpt>
      <trkpt lat="42.80268" lon="1.2708">
        <ele>695</ele>
        <time>2021-08-20T20:54:50Z</time>
      </trkpt>
      <trkpt lat="42.80263" lon="1.2709">
        <ele>695</ele>
        <time>2021-08-20T20:54:52Z</time>
      </trkpt>
      <trkpt lat="42.8026" lon="1.27104">
        <ele>696</ele>
        <time>2021-08-20T20:54:54Z</time>
      </trkpt>
      <trkpt lat="42.80256" lon="1.27182">
        <ele>700</ele>
        <time>2021-08-20T20:55:04Z</time>
      </trkpt>
      <trkpt lat="42.80254" lon="1.27209">
        <ele>703</ele>
        <time>2021-08-20T20:55:07Z</time>
      </trkpt>
      <trkpt lat="42.80249" lon="1.27231">
        <ele>705</ele>
        <time>2021-08-20T20:55:10Z</time>
      </trkpt>
      <trkpt lat="42.80242" lon="1.2725">
        <ele>707</ele>
        <time>2021-08-20T20:55:13Z</time>
      </trkpt>
      <trkpt lat="42.80203" lon="1.27325">
        <ele>719</ele>
        <time>2021-08-20T20:55:25Z</time>
      </trkpt>
      <trkpt lat="42.80172" lon="1.27359">
        <ele>719</ele>
        <time>2021-08-20T20:55:32Z</time>
      </trkpt>
      <trkpt lat="42.80169" lon="1.27368">
        <ele>720</ele>
        <time>2021-08-20T20:55:33Z</time>
      </trkpt>
      <trkpt lat="42.80169" lon="1.27377">
        <ele>721</ele>
        <time>2021-08-20T20:55:35Z</time>
      </trkpt>
      <trkpt lat="42.8017" lon="1.27385">
        <ele>723</ele>
        <time>2021-08-20T20:55:36Z</time>
      </trkpt>
      <trkpt lat="42.80173" lon="1.27392">
        <ele>725</ele>
        <time>2021-08-20T20:55:37Z</time>
      </trkpt>
      <trkpt lat="42.8018" lon="1.27396">
        <ele>727</ele>
        <time>2021-08-20T20:55:38Z</time>
      </trkpt>
      <trkpt lat="42.80186" lon="1.27395">
        <ele>729</ele>
        <time>2021-08-20T20:55:39Z</time>
      </trkpt>
      <trkpt lat="42.80192" lon="1.2739">
        <ele>729</ele>
        <time>2021-08-20T20:55:40Z</time>
      </trkpt>
      <trkpt lat="42.80208" lon="1.27365">
        <ele>728</ele>
        <time>2021-08-20T20:55:45Z</time>
      </trkpt>
      <trkpt lat="42.80228" lon="1.27344">
        <ele>727</ele>
        <time>2021-08-20T20:55:49Z</time>
      </trkpt>
      <trkpt lat="42.80455" lon="1.27206">
        <ele>750</ele>
        <time>2021-08-20T20:56:33Z</time>
      </trkpt>
      <trkpt lat="42.80603" lon="1.27125">
        <ele>763</ele>
        <time>2021-08-20T20:57:02Z</time>
      </trkpt>
      <trkpt lat="42.80638" lon="1.27095">
        <ele>763</ele>
        <time>2021-08-20T20:57:09Z</time>
      </trkpt>
      <trkpt lat="42.80672" lon="1.27063">
        <ele>764</ele>
        <time>2021-08-20T20:57:17Z</time>
      </trkpt>
      <trkpt lat="42.80723" lon="1.26999">
        <ele>768</ele>
        <time>2021-08-20T20:57:29Z</time>
      </trkpt>
      <trkpt lat="42.80728" lon="1.26997">
        <ele>770</ele>
        <time>2021-08-20T20:57:30Z</time>
      </trkpt>
      <trkpt lat="42.80731" lon="1.26999">
        <ele>771</ele>
        <time>2021-08-20T20:57:30Z</time>
      </trkpt>
      <trkpt lat="42.80732" lon="1.27006">
        <ele>774</ele>
        <time>2021-08-20T20:57:31Z</time>
      </trkpt>
      <trkpt lat="42.80668" lon="1.2711">
        <ele>779</ele>
        <time>2021-08-20T20:57:49Z</time>
      </trkpt>
      <trkpt lat="42.80558" lon="1.2725">
        <ele>799</ele>
        <time>2021-08-20T20:58:16Z</time>
      </trkpt>
      <trkpt lat="42.80487" lon="1.27333">
        <ele>805</ele>
        <time>2021-08-20T20:58:32Z</time>
      </trkpt>
      <trkpt lat="42.80461" lon="1.27371">
        <ele>807</ele>
        <time>2021-08-20T20:58:39Z</time>
      </trkpt>
      <trkpt lat="42.80428" lon="1.27421">
        <ele>811</ele>
        <time>2021-08-20T20:58:48Z</time>
      </trkpt>
      <trkpt lat="42.80399" lon="1.27458">
        <ele>812</ele>
        <time>2021-08-20T20:58:55Z</time>
      </trkpt>
      <trkpt lat="42.80367" lon="1.27506">
        <ele>813</ele>
        <time>2021-08-20T20:59:04Z</time>
      </trkpt>
      <trkpt lat="42.80356" lon="1.27526">
        <ele>813</ele>
        <time>2021-08-20T20:59:07Z</time>
      </trkpt>
      <trkpt lat="42.8035" lon="1.2754">
        <ele>813</ele>
        <time>2021-08-20T20:59:09Z</time>
      </trkpt>
      <trkpt lat="42.80343" lon="1.27576">
        <ele>817</ele>
        <time>2021-08-20T20:59:14Z</time>
      </trkpt>
      <trkpt lat="42.80333" lon="1.27655">
        <ele>824</ele>
        <time>2021-08-20T20:59:24Z</time>
      </trkpt>
      <trkpt lat="42.80307" lon="1.27731">
        <ele>835</ele>
        <time>2021-08-20T20:59:35Z</time>
      </trkpt>
      <trkpt lat="42.80307" lon="1.27744">
        <ele>837</ele>
        <time>2021-08-20T20:59:37Z</time>
      </trkpt>
      <trkpt lat="42.80314" lon="1.27753">
        <ele>840</ele>
        <time>2021-08-20T20:59:39Z</time>
      </trkpt>
      <trkpt lat="42.80319" lon="1.27752">
        <ele>841</ele>
        <time>2021-08-20T20:59:40Z</time>
      </trkpt>
      <trkpt lat="42.80332" lon="1.27741">
        <ele>841</ele>
        <time>2021-08-20T20:59:42Z</time>
      </trkpt>
      <trkpt lat="42.80356" lon="1.27707">
        <ele>845</ele>
        <time>2021-08-20T20:59:48Z</time>
      </trkpt>
      <trkpt lat="42.80367" lon="1.27681">
        <ele>845</ele>
        <time>2021-08-20T20:59:52Z</time>
      </trkpt>
      <trkpt lat="42.80406" lon="1.27605">
        <ele>848</ele>
        <time>2021-08-20T21:00:04Z</time>
      </trkpt>
      <trkpt lat="42.80435" lon="1.27559">
        <ele>852</ele>
        <time>2021-08-20T21:00:12Z</time>
      </trkpt>
      <trkpt lat="42.80463" lon="1.27521">
        <ele>856</ele>
        <time>2021-08-20T21:00:19Z</time>
      </trkpt>
      <trkpt lat="42.80511" lon="1.27464">
        <ele>858</ele>
        <time>2021-08-20T21:00:31Z</time>
      </trkpt>
      <trkpt lat="42.80517" lon="1.27461">
        <ele>859</ele>
        <time>2021-08-20T21:00:32Z</time>
      </trkpt>
      <trkpt lat="42.80523" lon="1.27463">
        <ele>863</ele>
        <time>2021-08-20T21:00:33Z</time>
      </trkpt>
      <trkpt lat="42.80525" lon="1.27471">
        <ele>867</ele>
        <time>2021-08-20T21:00:34Z</time>
      </trkpt>
      <trkpt lat="42.8052" lon="1.27482">
        <ele>868</ele>
        <time>2021-08-20T21:00:36Z</time>
      </trkpt>
      <trkpt lat="42.80478" lon="1.27535">
        <ele>867</ele>
        <time>2021-08-20T21:00:46Z</time>
      </trkpt>
      <trkpt lat="42.80461" lon="1.27572">
        <ele>870</ele>
        <time>2021-08-20T21:00:52Z</time>
      </trkpt>
      <trkpt lat="42.80442" lon="1.27634">
        <ele>875</ele>
        <time>2021-08-20T21:01:00Z</time>
      </trkpt>
      <trkpt lat="42.80433" lon="1.27672">
        <ele>878</ele>
        <time>2021-08-20T21:01:06Z</time>
      </trkpt>
      <trkpt lat="42.80427" lon="1.27708">
        <ele>882</ele>
        <time>2021-08-20T21:01:10Z</time>
      </trkpt>
      <trkpt lat="42.80421" lon="1.27763">
        <ele>890</ele>
        <time>2021-08-20T21:01:18Z</time>
      </trkpt>
      <trkpt lat="42.80416" lon="1.27793">
        <ele>893</ele>
        <time>2021-08-20T21:01:22Z</time>
      </trkpt>
      <trkpt lat="42.80409" lon="1.27813">
        <ele>894</ele>
        <time>2021-08-20T21:01:25Z</time>
      </trkpt>
      <trkpt lat="42.80402" lon="1.27825">
        <ele>893</ele>
        <time>2021-08-20T21:01:27Z</time>
      </trkpt>
      <trkpt lat="42.80389" lon="1.27837">
        <ele>890</ele>
        <time>2021-08-20T21:01:29Z</time>
      </trkpt>
      <trkpt lat="42.80383" lon="1.27846">
        <ele>889</ele>
        <time>2021-08-20T21:01:31Z</time>
      </trkpt>
      <trkpt lat="42.80377" lon="1.27861">
        <ele>890</ele>
        <time>2021-08-20T21:01:33Z</time>
      </trkpt>
      <trkpt lat="42.80372" lon="1.27925">
        <ele>902</ele>
        <time>2021-08-20T21:01:42Z</time>
      </trkpt>
      <trkpt lat="42.80355" lon="1.27954">
        <ele>902</ele>
        <time>2021-08-20T21:01:46Z</time>
      </trkpt>
      <trkpt lat="42.80338" lon="1.27995">
        <ele>904</ele>
        <time>2021-08-20T21:01:53Z</time>
      </trkpt>
      <trkpt lat="42.80324" lon="1.2804">
        <ele>908</ele>
        <time>2021-08-20T21:01:59Z</time>
      </trkpt>
      <trkpt lat="42.80313" lon="1.2808">
        <ele>912</ele>
        <time>2021-08-20T21:02:05Z</time>
      </trkpt>
      <trkpt lat="42.80309" lon="1.28112">
        <ele>916</ele>
        <time>2021-08-20T21:02:09Z</time>
      </trkpt>
      <trkpt lat="42.80301" lon="1.28262">
        <ele>932</ele>
        <time>2021-08-20T21:02:28Z</time>
      </trkpt>
      <trkpt lat="42.80294" lon="1.28302">
        <ele>934</ele>
        <time>2021-08-20T21:02:34Z</time>
      </trkpt>
      <trkpt lat="42.80284" lon="1.2834">
        <ele>935</ele>
        <time>2021-08-20T21:02:39Z</time>
      </trkpt>
      <trkpt lat="42.80266" lon="1.2839">
        <ele>933</ele>
        <time>2021-08-20T21:02:46Z</time>
      </trkpt>
      <trkpt lat="42.80252" lon="1.28435">
        <ele>931</ele>
        <time>2021-08-20T21:02:53Z</time>
      </trkpt>
      <trkpt lat="42.80205" lon="1.28597">
        <ele>942</ele>
        <time>2021-08-20T21:03:15Z</time>
      </trkpt>
      <trkpt lat="42.802" lon="1.28632">
        <ele>944</ele>
        <time>2021-08-20T21:03:20Z</time>
      </trkpt>
      <trkpt lat="42.80198" lon="1.28665">
        <ele>945</ele>
        <time>2021-08-20T21:03:24Z</time>
      </trkpt>
      <trkpt lat="42.80191" lon="1.28827">
        <ele>958</ele>
        <time>2021-08-20T21:03:46Z</time>
      </trkpt>
      <trkpt lat="42.80188" lon="1.28857">
        <ele>960</ele>
        <time>2021-08-20T21:03:50Z</time>
      </trkpt>
      <trkpt lat="42.80167" lon="1.28961">
        <ele>962</ele>
        <time>2021-08-20T21:04:04Z</time>
      </trkpt>
      <trkpt lat="42.80164" lon="1.28996">
        <ele>965</ele>
        <time>2021-08-20T21:04:08Z</time>
      </trkpt>
      <trkpt lat="42.80162" lon="1.2909">
        <ele>972</ele>
        <time>2021-08-20T21:04:21Z</time>
      </trkpt>
      <trkpt lat="42.80155" lon="1.29147">
        <ele>978</ele>
        <time>2021-08-20T21:04:28Z</time>
      </trkpt>
      <trkpt lat="42.80142" lon="1.29203">
        <ele>983</ele>
        <time>2021-08-20T21:04:36Z</time>
      </trkpt>
      <trkpt lat="42.80131" lon="1.29273">
        <ele>990</ele>
        <time>2021-08-20T21:04:45Z</time>
      </trkpt>
      <trkpt lat="42.80124" lon="1.29345">
        <ele>994</ele>
        <time>2021-08-20T21:04:55Z</time>
      </trkpt>
      <trkpt lat="42.80121" lon="1.29441">
        <ele>1003</ele>
        <time>2021-08-20T21:05:07Z</time>
      </trkpt>
      <trkpt lat="42.80125" lon="1.29471">
        <ele>1008</ele>
        <time>2021-08-20T21:05:11Z</time>
      </trkpt>
      <trkpt lat="42.80136" lon="1.29526">
        <ele>1018</ele>
        <time>2021-08-20T21:05:19Z</time>
      </trkpt>
      <trkpt lat="42.80137" lon="1.29563">
        <ele>1022</ele>
        <time>2021-08-20T21:05:23Z</time>
      </trkpt>
      <trkpt lat="42.80128" lon="1.2967">
        <ele>1027</ele>
        <time>2021-08-20T21:05:37Z</time>
      </trkpt>
      <trkpt lat="42.8011" lon="1.29762">
        <ele>1026</ele>
        <time>2021-08-20T21:05:50Z</time>
      </trkpt>
      <trkpt lat="42.801" lon="1.29861">
        <ele>1031</ele>
        <time>2021-08-20T21:06:03Z</time>
      </trkpt>
      <trkpt lat="42.80091" lon="1.29934">
        <ele>1032</ele>
        <time>2021-08-20T21:06:13Z</time>
      </trkpt>
      <trkpt lat="42.80079" lon="1.29998">
        <ele>1034</ele>
        <time>2021-08-20T21:06:21Z</time>
      </trkpt>
      <trkpt lat="42.80061" lon="1.30071">
        <ele>1043</ele>
        <time>2021-08-20T21:06:31Z</time>
      </trkpt>
      <trkpt lat="42.80027" lon="1.30163">
        <ele>1051</ele>
        <time>2021-08-20T21:06:45Z</time>
      </trkpt>
      <trkpt lat="42.80017" lon="1.30185">
        <ele>1052</ele>
        <time>2021-08-20T21:06:48Z</time>
      </trkpt>
      <trkpt lat="42.79983" lon="1.30243">
        <ele>1056</ele>
        <time>2021-08-20T21:06:58Z</time>
      </trkpt>
      <trkpt lat="42.7994" lon="1.30306">
        <ele>1061</ele>
        <time>2021-08-20T21:07:09Z</time>
      </trkpt>
      <trkpt lat="42.79927" lon="1.30329">
        <ele>1061</ele>
        <time>2021-08-20T21:07:13Z</time>
      </trkpt>
      <trkpt lat="42.79915" lon="1.30357">
        <ele>1064</ele>
        <time>2021-08-20T21:07:17Z</time>
      </trkpt>
      <trkpt lat="42.79904" lon="1.30389">
        <ele>1071</ele>
        <time>2021-08-20T21:07:22Z</time>
      </trkpt>
      <trkpt lat="42.79892" lon="1.30415">
        <ele>1075</ele>
        <time>2021-08-20T21:07:26Z</time>
      </trkpt>
      <trkpt lat="42.79869" lon="1.3045">
        <ele>1077</ele>
        <time>2021-08-20T21:07:32Z</time>
      </trkpt>
      <trkpt lat="42.79859" lon="1.30471">
        <ele>1078</ele>
        <time>2021-08-20T21:07:35Z</time>
      </trkpt>
      <trkpt lat="42.7983" lon="1.30554">
        <ele>1083</ele>
        <time>2021-08-20T21:07:47Z</time>
      </trkpt>
      <trkpt lat="42.79818" lon="1.3058">
        <ele>1087</ele>
        <time>2021-08-20T21:07:51Z</time>
      </trkpt>
      <trkpt lat="42.79765" lon="1.30684">
        <ele>1094</ele>
        <time>2021-08-20T21:08:08Z</time>
      </trkpt>
      <trkpt lat="42.7974" lon="1.30746">
        <ele>1100</ele>
        <time>2021-08-20T21:08:17Z</time>
      </trkpt>
      <trkpt lat="42.7973" lon="1.3076">
        <ele>1104</ele>
        <time>2021-08-20T21:08:19Z</time>
      </trkpt>
      <trkpt lat="42.79715" lon="1.30774">
        <ele>1106</ele>
        <time>2021-08-20T21:08:23Z</time>
      </trkpt>
      <trkpt lat="42.79706" lon="1.30786">
        <ele>1107</ele>
        <time>2021-08-20T21:08:25Z</time>
      </trkpt>
      <trkpt lat="42.79697" lon="1.30809">
        <ele>1109</ele>
        <time>2021-08-20T21:08:28Z</time>
      </trkpt>
      <trkpt lat="42.7963" lon="1.31064">
        <ele>1116</ele>
        <time>2021-08-20T21:09:04Z</time>
      </trkpt>
      <trkpt lat="42.7962" lon="1.31092">
        <ele>1116</ele>
        <time>2021-08-20T21:09:08Z</time>
      </trkpt>
      <trkpt lat="42.79582" lon="1.31141">
        <ele>1110</ele>
        <time>2021-08-20T21:09:17Z</time>
      </trkpt>
      <trkpt lat="42.79569" lon="1.31165">
        <ele>1113</ele>
        <time>2021-08-20T21:09:21Z</time>
      </trkpt>
      <trkpt lat="42.79558" lon="1.31202">
        <ele>1117</ele>
        <time>2021-08-20T21:09:26Z</time>
      </trkpt>
      <trkpt lat="42.79555" lon="1.31229">
        <ele>1119</ele>
        <time>2021-08-20T21:09:30Z</time>
      </trkpt>
    </trkseg>
  </trk>
</gpx>